Time;durP1;ratioP1;P1;durP2;ratioP2;P2;SDS_P1;SDS_P2;PMS_P1;PMS_P2;Temp;Humidity;BMP_temperature;BMP_pressure;BME280_temperature;BME280_humidity;BME280_pressure;Samples;Min_cycle;Max_cycle;Signal;HPM_P1;HPM_P2
2022/05/01 00:01:39;;;;;;;33.90;21.17;;;;;;;15.06;55.36;97931.63;5072431;28;20201;-68
2022/05/01 00:04:04;;;;;;;25.70;20.23;;;;;;;15.13;54.94;97922.06;5071174;28;20669;-69
2022/05/01 00:06:33;;;;;;;27.53;20.83;;;;;;;15.09;54.60;97927.81;5070973;28;20232;-70
2022/05/01 00:09:00;;;;;;;26.90;20.13;;;;;;;15.01;55.05;97924.19;5075210;28;20206;-68
2022/05/01 00:11:26;;;;;;;26.50;20.27;;;;;;;15.01;55.13;97918.09;5072080;28;20448;-69
2022/05/01 00:13:51;;;;;;;28.33;21.83;;;;;;;15.07;55.10;97916.59;5071226;28;20440;-69
2022/05/01 00:16:17;;;;;;;29.10;20.20;;;;;;;15.10;54.99;97911.84;5072290;28;20415;-69
2022/05/01 00:18:42;;;;;;;31.30;22.47;;;;;;;15.11;54.94;97910.00;5072115;28;20235;-69
2022/05/01 00:21:08;;;;;;;31.73;22.30;;;;;;;15.14;55.04;97907.88;5072183;28;20209;-69
2022/05/01 00:23:33;;;;;;;36.40;22.70;;;;;;;15.11;55.21;97910.84;5071847;28;20186;-70
2022/05/01 00:26:01;;;;;;;29.50;23.07;;;;;;;15.13;54.99;97903.56;5072375;28;20208;-69
2022/05/01 00:28:26;;;;;;;26.97;21.20;;;;;;;15.08;54.86;97911.19;5045766;28;20195;-70
2022/05/01 00:30:52;;;;;;;32.83;23.90;;;;;;;14.96;55.34;97912.47;5070517;28;20459;-69
2022/05/01 00:38:46;;;;;;;36.10;25.40;;;;;;;15.10;54.89;97903.09;5064211;28;20502;-69
2022/05/01 00:41:12;;;;;;;38.03;25.87;;;;;;;15.11;55.00;97907.38;5071803;28;20527;-69
2022/05/01 00:44:05;;;;;;;37.73;25.27;;;;;;;15.10;55.14;97906.56;5070489;28;20175;-69
2022/05/01 00:46:35;;;;;;;38.43;25.90;;;;;;;15.09;54.82;97902.28;5066153;28;20528;-69
2022/05/01 00:49:03;;;;;;;41.33;25.77;;;;;;;15.11;54.90;97896.81;5070376;28;20496;-67
2022/05/01 00:51:30;;;;;;;38.53;25.93;;;;;;;15.05;54.54;97901.78;5072056;28;20471;-68
2022/05/01 00:53:56;;;;;;;37.13;25.77;;;;;;;15.06;54.68;97897.31;5070308;28;20447;-67
2022/05/01 00:56:24;;;;;;;38.80;26.17;;;;;;;15.04;54.61;97909.84;5070399;28;20447;-67
2022/05/01 00:58:50;;;;;;;36.23;24.13;;;;;;;14.97;55.35;97903.59;5070183;28;20423;-67
2022/05/01 01:01:16;;;;;;;35.47;24.87;;;;;;;14.98;55.49;97907.88;5077016;28;20818;-69
2022/05/01 01:03:41;;;;;;;37.00;24.50;;;;;;;15.09;54.86;97899.63;5070226;28;20430;-69
2022/05/01 01:06:07;;;;;;;43.10;26.07;;;;;;;15.08;55.14;97903.25;5071540;28;20183;-67
2022/05/01 01:08:32;;;;;;;35.43;24.13;;;;;;;15.03;54.78;97901.13;5074269;28;20570;-67
2022/05/01 01:10:58;;;;;;;36.80;27.27;;;;;;;15.07;54.81;97898.97;5068697;28;20198;-68
2022/05/01 01:13:28;;;;;;;36.90;26.10;;;;;;;15.05;54.84;97903.56;5067025;28;20739;-68
2022/05/01 01:15:54;;;;;;;40.30;26.10;;;;;;;15.12;54.65;97904.56;5068327;28;20543;-67
2022/05/01 01:18:20;;;;;;;44.90;25.97;;;;;;;15.14;54.50;97896.50;5070331;28;20431;-68
2022/05/01 01:20:46;;;;;;;37.67;24.80;;;;;;;15.15;54.35;97893.69;5070580;28;20437;-67
2022/05/01 01:23:11;;;;;;;36.30;26.13;;;;;;;15.01;54.94;97894.31;5071181;28;21150;-68
2022/05/01 01:25:37;;;;;;;34.77;23.63;;;;;;;15.05;54.65;97887.75;5069532;28;20261;-68
2022/05/01 01:28:05;;;;;;;34.23;25.47;;;;;;;14.94;55.26;97891.50;5061452;28;20255;-68
2022/05/01 01:33:16;;;;;;;37.90;25.97;;;;;;;15.08;54.71;97891.84;5069928;28;20448;-69
2022/05/01 01:35:42;;;;;;;37.43;24.97;;;;;;;15.03;54.80;97885.28;5070827;28;20464;-68
2022/05/01 01:38:08;;;;;;;43.80;26.13;;;;;;;14.99;54.73;97888.41;5068418;28;20581;-69
2022/05/01 01:41:04;;;;;;;43.00;26.00;;;;;;;14.98;54.83;97881.47;5071125;28;20455;-68
2022/05/01 01:43:31;;;;;;;35.10;24.90;;;;;;;14.97;55.18;97882.47;5050503;28;20232;-68
2022/05/01 01:45:56;;;;;;;38.20;25.13;;;;;;;14.99;54.71;97877.84;5051893;28;20460;-68
2022/05/01 01:48:23;;;;;;;39.00;25.97;;;;;;;15.00;55.09;97880.31;5051752;28;20429;-68
2022/05/01 01:50:57;;;;;;;35.87;26.20;;;;;;;14.96;55.16;97881.63;5067950;28;20641;-69
2022/05/01 01:53:22;;;;;;;35.83;25.43;;;;;;;14.99;54.91;97877.84;5067794;28;20421;-69
2022/05/01 01:55:48;;;;;;;44.53;26.57;;;;;;;14.96;54.98;97873.72;5068275;28;20551;-70
2022/05/01 01:58:13;;;;;;;37.00;25.00;;;;;;;14.95;55.17;97876.53;5068333;28;20183;-70
2022/05/01 02:00:39;;;;;;;38.60;25.37;;;;;;;14.96;55.27;97878.97;5051647;28;20199;-69
2022/05/01 02:03:05;;;;;;;40.63;23.80;;;;;;;15.00;55.11;97882.13;5073024;28;20319;-69
2022/05/01 02:05:32;;;;;;;34.50;24.70;;;;;;;15.00;54.82;97875.03;5067760;28;20187;-69
2022/05/01 02:07:58;;;;;;;35.00;24.47;;;;;;;15.06;54.60;97876.19;5068376;28;20432;-70
2022/05/01 02:10:23;;;;;;;34.00;23.27;;;;;;;15.09;54.56;97878.50;5052754;28;20525;-70
2022/05/01 02:12:49;;;;;;;37.43;23.83;;;;;;;15.08;54.54;97866.31;5050075;28;20198;-70
2022/05/01 02:15:15;;;;;;;34.10;23.87;;;;;;;15.04;54.49;97867.59;5061045;28;20425;-69
2022/05/01 02:17:41;;;;;;;34.70;24.37;;;;;;;15.01;54.43;97865.28;5051315;28;20547;-70
2022/05/01 02:20:11;;;;;;;31.20;22.03;;;;;;;14.94;54.77;97870.41;5068842;28;20209;-69
2022/05/01 02:22:39;;;;;;;32.50;22.60;;;;;;;14.94;54.96;97866.94;5070187;28;20421;-71
2022/05/01 02:25:07;;;;;;;32.10;21.90;;;;;;;14.92;54.92;97871.56;5070372;28;20486;-70
2022/05/01 02:27:32;;;;;;;34.47;23.60;;;;;;;14.89;54.94;97862.97;5062076;28;20413;-69
2022/05/01 02:29:58;;;;;;;36.53;23.43;;;;;;;14.91;54.83;97873.38;5069159;28;20456;-70
2022/05/01 02:32:24;;;;;;;32.90;23.07;;;;;;;14.88;54.96;97858.69;5069990;28;20229;-70
2022/05/01 02:34:49;;;;;;;34.50;22.90;;;;;;;14.90;54.75;97859.34;5070490;28;20178;-70
2022/05/01 02:37:15;;;;;;;43.80;26.20;;;;;;;14.95;54.56;97858.03;5070222;28;20807;-70
2022/05/01 02:39:40;;;;;;;32.00;24.20;;;;;;;14.93;54.77;97849.47;5069760;28;20277;-70
2022/05/01 02:42:06;;;;;;;37.10;24.50;;;;;;;14.95;54.59;97850.13;5066080;28;20187;-70
2022/05/01 02:44:32;;;;;;;37.53;25.43;;;;;;;14.95;54.71;97850.13;5078451;28;20183;-71
2022/05/01 02:46:57;;;;;;;34.87;24.67;;;;;;;14.95;54.55;97845.66;5070093;28;20424;-70
2022/05/01 02:49:23;;;;;;;33.60;24.00;;;;;;;14.97;54.48;97843.69;5069328;28;20206;-70
2022/05/01 02:51:49;;;;;;;36.73;25.53;;;;;;;14.92;54.64;97845.16;5070138;28;20190;-69
2022/05/01 02:54:14;;;;;;;40.20;23.47;;;;;;;14.98;54.39;97841.88;5070567;28;20175;-68
2022/05/01 02:56:40;;;;;;;37.17;24.43;;;;;;;14.90;54.64;97842.72;5073740;28;20417;-68
2022/05/01 02:59:09;;;;;;;43.23;24.73;;;;;;;14.81;54.90;97844.50;5073720;28;20235;-68
2022/05/01 03:01:35;;;;;;;37.67;25.43;;;;;;;14.80;54.83;97842.84;5077578;28;20310;-69
2022/05/01 03:04:02;;;;;;;41.33;25.73;;;;;;;14.77;54.84;97840.53;5073586;28;20416;-68
2022/05/01 03:06:27;;;;;;;38.63;25.53;;;;;;;14.74;54.90;97838.25;5073527;28;20420;-68
2022/05/01 03:08:53;;;;;;;38.17;23.10;;;;;;;14.72;55.07;97835.75;5076230;28;20529;-68
2022/05/01 03:11:19;;;;;;;36.20;25.80;;;;;;;14.63;55.21;97835.88;5073008;28;20198;-68
2022/05/01 03:13:44;;;;;;;42.50;25.57;;;;;;;14.66;55.38;97841.66;5069098;28;20185;-69
2022/05/01 03:16:10;;;;;;;43.17;26.90;;;;;;;14.69;55.27;97832.63;5073339;28;20900;-68
2022/05/01 03:24:20;;;;;;;37.53;23.87;;;;;;;14.57;55.44;97832.91;5064124;28;20429;-67
2022/05/01 03:26:47;;;;;;;39.07;24.53;;;;;;;14.52;55.56;97832.56;5065201;28;20433;-68
2022/05/01 03:29:16;;;;;;;34.47;23.60;;;;;;;14.48;55.80;97833.06;5065099;28;20285;-68
2022/05/01 03:31:41;;;;;;;38.63;23.97;;;;;;;14.47;55.76;97836.66;5076818;28;20440;-67
2022/05/01 03:34:07;;;;;;;36.40;23.20;;;;;;;14.50;55.48;97833.72;5072740;28;20451;-69
2022/05/01 03:36:33;;;;;;;33.97;22.17;;;;;;;14.46;55.76;97835.03;5091679;28;20198;-67
2022/05/01 03:38:59;;;;;;;34.77;23.80;;;;;;;14.46;55.65;97838.50;5092861;28;20178;-67
2022/05/01 03:41:26;;;;;;;36.80;24.10;;;;;;;14.34;55.93;97832.69;5072859;28;20198;-68
2022/05/01 03:43:51;;;;;;;33.30;22.07;;;;;;;14.35;56.13;97834.34;5071201;28;20206;-68
2022/05/01 03:46:20;;;;;;;34.07;22.87;;;;;;;14.32;56.07;97837.28;5089748;28;20465;-69
2022/05/01 03:48:46;;;;;;;33.07;22.80;;;;;;;14.35;55.92;97846.72;5091944;28;20209;-69
2022/05/01 03:51:12;;;;;;;34.40;22.70;;;;;;;14.39;56.34;97842.75;5090273;28;20436;-69
2022/05/01 03:53:38;;;;;;;32.50;23.00;;;;;;;14.39;55.69;97845.38;5084112;28;20485;-70
2022/05/01 03:56:04;;;;;;;41.40;24.77;;;;;;;14.34;55.75;97851.16;5093033;28;20181;-70
2022/05/01 03:58:29;;;;;;;40.30;24.83;;;;;;;14.28;55.89;97844.72;5092659;28;20817;-70
2022/05/01 04:00:55;;;;;;;41.53;24.90;;;;;;;14.33;56.44;97851.31;5081666;28;20946;-69
2022/05/01 04:03:21;;;;;;;31.70;23.77;;;;;;;14.36;56.05;97843.91;5082738;28;20183;-69
2022/05/01 04:05:46;;;;;;;36.97;24.93;;;;;;;14.40;56.23;97844.41;5076362;28;20416;-70
2022/05/01 04:08:12;;;;;;;36.10;24.47;;;;;;;14.47;56.05;97849.84;5060073;28;20186;-69
2022/05/01 04:10:40;;;;;;;35.30;23.67;;;;;;;14.52;55.74;97851.03;5091688;28;20208;-70
2022/05/01 04:13:06;;;;;;;38.23;24.20;;;;;;;14.53;55.68;97839.50;5092818;28;20204;-70
2022/05/01 04:15:31;;;;;;;42.57;24.83;;;;;;;14.57;55.80;97848.75;5077690;28;20428;-69
2022/05/01 04:17:57;;;;;;;33.17;23.30;;;;;;;14.58;55.68;97847.75;5073606;28;20179;-69
2022/05/01 04:20:23;;;;;;;36.23;24.13;;;;;;;14.52;55.93;97845.75;5075561;28;20209;-70
2022/05/01 04:22:49;;;;;;;39.83;25.07;;;;;;;14.49;56.31;97846.06;5092776;28;20434;-69
2022/05/01 04:25:23;;;;;;;34.50;23.70;;;;;;;14.56;56.24;97847.09;5081710;28;20995;-69
2022/05/01 04:27:52;;;;;;;36.40;24.13;;;;;;;14.58;55.92;97834.56;5069261;28;20227;-70
2022/05/01 04:30:18;;;;;;;39.37;24.40;;;;;;;14.59;55.60;97836.22;5092016;28;20520;-69
2022/05/01 04:32:53;;;;;;;40.00;25.10;;;;;;;14.61;55.44;97838.69;5084494;28;20793;-71
2022/05/01 04:35:25;;;;;;;41.33;24.50;;;;;;;14.61;55.28;97836.03;5080215;28;20473;-69
2022/05/01 04:37:50;;;;;;;35.40;24.43;;;;;;;14.51;55.30;97844.09;5092557;28;20408;-68
2022/05/01 04:40:16;;;;;;;38.57;25.73;;;;;;;14.52;55.32;97843.09;5091641;28;20428;-69
2022/05/01 04:42:42;;;;;;;39.87;25.57;;;;;;;14.47;55.26;97848.06;5077387;28;20203;-68
2022/05/01 04:45:09;;;;;;;39.63;25.80;;;;;;;14.52;55.60;97844.94;5087636;28;20242;-69
2022/05/01 04:47:34;;;;;;;46.80;25.57;;;;;;;14.43;55.57;97852.00;5081630;28;20419;-69
2022/05/01 04:50:00;;;;;;;42.57;25.07;;;;;;;14.37;56.08;97855.25;5079070;28;20921;-68
2022/05/01 04:52:25;;;;;;;39.03;24.73;;;;;;;14.34;56.13;97864.34;5077657;28;20178;-69
2022/05/01 04:54:51;;;;;;;37.73;23.37;;;;;;;14.43;56.07;97857.28;5092262;28;20185;-69
2022/05/01 04:57:16;;;;;;;42.83;24.30;;;;;;;14.41;56.34;97869.78;5083462;28;20175;-67
2022/05/01 04:59:43;;;;;;;35.13;23.50;;;;;;;14.32;56.35;97861.03;5076153;28;20305;-69
2022/05/01 05:02:08;;;;;;;41.97;25.37;;;;;;;14.19;56.59;97860.66;5086926;28;20645;-67
2022/05/01 05:04:34;;;;;;;41.17;26.27;;;;;;;14.10;57.21;97859.81;5082058;28;20499;-67
2022/05/01 05:06:59;;;;;;;65.20;43.30;;;;;;;14.15;56.66;97865.41;5086563;28;20175;-67
2022/05/01 05:12:09;;;;;;;41.33;27.47;;;;;;;14.17;56.54;97873.19;5069963;28;20170;-68
2022/05/01 05:14:35;;;;;;;42.27;26.53;;;;;;;14.10;57.17;97873.00;5089836;28;20442;-69
2022/05/01 05:17:01;;;;;;;39.37;26.70;;;;;;;14.16;57.01;97876.81;5091725;28;20183;-68
2022/05/01 05:19:27;;;;;;;40.73;26.97;;;;;;;14.05;57.24;97875.25;5066836;28;20883;-67
2022/05/01 05:21:52;;;;;;;41.13;27.40;;;;;;;14.27;56.62;97874.69;5086380;28;20201;-68
2022/05/01 05:24:19;;;;;;;41.67;25.77;;;;;;;14.32;56.72;97876.03;5090939;28;20640;-67
2022/05/01 05:26:45;;;;;;;40.80;25.60;;;;;;;14.36;56.61;97886.09;5072753;28;20186;-67
2022/05/01 05:29:10;;;;;;;44.73;29.00;;;;;;;14.36;56.48;97882.66;5082191;28;20455;-67
2022/05/01 05:31:36;;;;;;;52.33;31.80;;;;;;;14.46;56.47;97893.03;5091085;28;20225;-68
2022/05/01 05:34:01;;;;;;;38.97;26.97;;;;;;;14.48;56.34;97881.38;5070414;28;20185;-67
2022/05/01 05:36:26;;;;;;;39.77;25.63;;;;;;;14.56;55.96;97891.09;5068002;28;20201;-68
2022/05/01 05:38:52;;;;;;;38.87;26.33;;;;;;;14.54;55.86;97890.44;5070530;28;20265;-68
2022/05/01 05:41:17;;;;;;;42.50;26.17;;;;;;;14.52;55.90;97895.88;5072523;28;20776;-68
2022/05/01 05:43:43;;;;;;;37.67;26.83;;;;;;;14.49;55.47;97900.63;5069560;28;20182;-68
2022/05/01 05:46:08;;;;;;;42.60;25.43;;;;;;;14.43;56.27;97888.91;5071121;28;20266;-67
2022/05/01 05:48:35;;;;;;;38.20;25.23;;;;;;;14.42;56.03;97893.38;5071284;28;20620;-68
2022/05/01 05:51:00;;;;;;;39.70;25.87;;;;;;;14.43;56.25;97894.19;5070882;28;20760;-68
2022/05/01 05:53:26;;;;;;;36.23;24.13;;;;;;;14.43;56.18;97895.00;5070684;28;20425;-68
2022/05/01 05:55:51;;;;;;;38.67;24.73;;;;;;;14.44;56.01;97891.38;5069106;28;20669;-69
2022/05/01 05:58:17;;;;;;;35.17;24.50;;;;;;;14.50;55.84;97897.00;5070513;28;20186;-68
2022/05/01 06:00:42;;;;;;;32.37;23.67;;;;;;;14.49;55.81;97904.09;5080298;28;20700;-68
2022/05/01 06:03:07;;;;;;;37.17;25.00;;;;;;;14.38;55.54;97893.84;5075368;28;20607;-68
2022/05/01 06:05:33;;;;;;;42.00;25.07;;;;;;;14.39;55.69;97893.69;5070863;28;20189;-69
2022/05/01 06:07:59;;;;;;;34.50;23.77;;;;;;;14.41;55.65;97897.00;5071592;28;20652;-69
2022/05/01 06:10:24;;;;;;;37.70;25.10;;;;;;;14.39;55.75;97892.84;5072559;28;20215;-69
2022/05/01 06:12:50;;;;;;;39.47;28.43;;;;;;;14.27;56.15;97887.88;5068243;28;20166;-68
2022/05/01 06:15:15;;;;;;;37.43;27.20;;;;;;;14.24;56.17;97893.44;5070869;28;20178;-68
2022/05/01 06:17:41;;;;;;;45.03;26.33;;;;;;;14.47;56.08;97899.97;5079001;28;20533;-67
2022/05/01 06:20:07;;;;;;;37.93;26.67;;;;;;;14.43;56.16;97899.47;5070385;28;20190;-68
2022/05/01 06:22:32;;;;;;;36.60;25.03;;;;;;;14.56;55.49;97902.47;5069430;28;20514;-67
2022/05/01 06:24:59;;;;;;;34.77;25.70;;;;;;;14.58;55.28;97905.78;5071123;28;20440;-69
2022/05/01 06:27:24;;;;;;;30.30;23.17;;;;;;;14.53;55.37;97896.69;5062450;28;20182;-69
2022/05/01 06:29:50;;;;;;;34.97;25.13;;;;;;;14.62;55.25;97910.75;5072023;28;20468;-69
2022/05/01 06:32:17;;;;;;;40.50;28.50;;;;;;;14.71;55.50;97907.16;5079605;28;20183;-69
2022/05/01 06:34:44;;;;;;;43.63;25.40;;;;;;;14.79;55.08;97904.53;5066513;28;20244;-69
2022/05/01 06:37:09;;;;;;;31.53;23.20;;;;;;;14.84;54.80;97907.53;5072923;28;20439;-68
2022/05/01 06:39:35;;;;;;;39.20;25.17;;;;;;;14.92;54.53;97903.22;5080931;28;20412;-68
2022/05/01 06:42:00;;;;;;;29.63;22.93;;;;;;;14.92;54.52;97900.59;5073256;28;20320;-68
2022/05/01 06:44:26;;;;;;;41.70;25.60;;;;;;;14.93;53.95;97899.59;5073985;28;20535;-68
2022/05/01 06:46:51;;;;;;;36.17;24.03;;;;;;;14.80;53.87;97906.19;5074221;28;20261;-67
2022/05/01 06:49:16;;;;;;;35.93;24.30;;;;;;;14.84;54.45;97902.25;5074336;28;20202;-68
2022/05/01 06:51:42;;;;;;;31.43;23.97;;;;;;;14.92;54.23;97905.88;5074036;28;20240;-70
2022/05/01 06:54:10;;;;;;;31.83;24.43;;;;;;;14.95;53.80;97903.72;5071584;28;20551;-68
2022/05/01 06:56:35;;;;;;;36.97;24.30;;;;;;;15.00;54.17;97909.34;5073683;28;20212;-71
2022/05/01 06:59:01;;;;;;;29.83;22.30;;;;;;;15.01;54.54;97904.88;5073645;28;20421;-70
2022/05/01 07:01:27;;;;;;;32.90;24.50;;;;;;;15.04;54.02;97899.28;5074719;28;20293;-70
2022/05/01 07:03:52;;;;;;;32.83;22.00;;;;;;;15.13;54.01;97911.50;5073873;28;20802;-71
2022/05/01 07:06:18;;;;;;;30.77;23.00;;;;;;;15.23;53.48;97899.97;5074016;28;20185;-69
2022/05/01 07:08:43;;;;;;;33.33;22.03;;;;;;;15.22;53.71;97899.13;5076795;28;20240;-69
2022/05/01 07:11:09;;;;;;;38.17;22.07;;;;;;;15.14;53.97;97910.50;5073671;28;20237;-70
2022/05/01 07:13:36;;;;;;;34.33;22.90;;;;;;;15.18;53.66;97906.56;5072487;28;20182;-69
2022/05/01 07:16:01;;;;;;;29.97;22.07;;;;;;;15.15;53.63;97904.25;5073868;28;20456;-68
2022/05/01 07:18:27;;;;;;;34.03;22.50;;;;;;;15.17;53.71;97909.38;5073391;28;20950;-69
2022/05/01 07:20:52;;;;;;;29.93;22.47;;;;;;;15.18;53.59;97909.19;5073268;28;20596;-68
2022/05/01 07:23:22;;;;;;;27.40;21.23;;;;;;;15.16;53.34;97918.28;5060366;28;20257;-68
2022/05/01 07:25:48;;;;;;;25.93;20.53;;;;;;;15.30;53.74;97916.78;5062643;28;20174;-68
2022/05/01 07:28:14;;;;;;;28.50;20.47;;;;;;;15.31;53.40;97910.53;5061157;28;20426;-68
2022/05/01 07:30:39;;;;;;;25.97;20.83;;;;;;;15.35;53.77;97914.50;5059677;28;20944;-68
2022/05/01 07:33:05;;;;;;;29.03;20.90;;;;;;;15.45;53.37;97915.13;5063710;28;20179;-69
2022/05/01 07:35:30;;;;;;;33.47;21.40;;;;;;;15.52;53.07;97912.66;5065541;28;20179;-69
2022/05/01 07:37:56;;;;;;;26.57;20.47;;;;;;;15.59;52.75;97913.63;5061223;28;20232;-68
2022/05/01 07:40:24;;;;;;;29.60;21.13;;;;;;;15.61;52.44;97913.47;5058075;28;20684;-68
2022/05/01 07:42:51;;;;;;;30.10;21.60;;;;;;;15.67;52.02;97907.50;5071324;28;20293;-68
2022/05/01 07:45:17;;;;;;;29.77;20.43;;;;;;;15.72;51.99;97899.91;5072769;28;20478;-68
2022/05/01 07:47:43;;;;;;;27.70;20.33;;;;;;;15.74;51.77;97897.09;5073267;28;20425;-69
2022/05/01 07:50:09;;;;;;;26.57;19.80;;;;;;;15.76;52.04;97903.84;5073308;28;20494;-69
2022/05/01 07:52:35;;;;;;;27.13;20.70;;;;;;;15.78;51.96;97898.41;5072682;28;20214;-70
2022/05/01 07:55:01;;;;;;;30.00;20.00;;;;;;;15.84;51.92;97900.38;5072684;28;20487;-69
2022/05/01 07:57:27;;;;;;;28.63;19.17;;;;;;;15.93;52.06;97901.22;5072510;28;20714;-69
2022/05/01 07:59:54;;;;;;;26.40;18.90;;;;;;;15.94;51.11;97897.56;5072534;28;20434;-69
2022/05/01 08:02:19;;;;;;;24.53;18.33;;;;;;;15.96;51.09;97901.69;5072509;28;20278;-68
2022/05/01 08:04:45;;;;;;;31.40;20.83;;;;;;;15.94;51.51;97902.88;5072930;28;20449;-69
2022/05/01 08:07:10;;;;;;;25.93;19.67;;;;;;;15.89;51.75;97905.19;5072707;28;20641;-69
2022/05/01 08:09:36;;;;;;;25.80;19.43;;;;;;;16.01;51.95;97903.00;5074941;28;20210;-68
2022/05/01 08:12:02;;;;;;;27.47;18.90;;;;;;;16.07;51.09;97899.66;5072058;28;20175;-68
2022/05/01 08:14:28;;;;;;;26.50;19.87;;;;;;;16.08;50.49;97898.69;5072685;28;20383;-69
2022/05/01 08:16:53;;;;;;;27.57;20.13;;;;;;;16.06;50.81;97900.69;5072654;28;20432;-69
2022/05/01 08:22:06;;;;;;;26.97;19.80;;;;;;;15.89;50.92;97895.44;5072545;28;20194;-68
2022/05/01 08:24:32;;;;;;;22.10;17.67;;;;;;;16.00;50.39;97896.06;5072703;28;20516;-69
2022/05/01 08:27:04;;;;;;;22.50;18.20;;;;;;;16.18;50.45;97895.84;5051299;28;20433;-69
2022/05/01 08:29:31;;;;;;;20.43;16.50;;;;;;;16.31;49.48;97898.78;5070444;28;20500;-70
2022/05/01 08:31:58;;;;;;;23.03;17.70;;;;;;;16.33;48.87;97902.06;5077313;28;20424;-68
2022/05/01 08:34:23;;;;;;;22.00;18.37;;;;;;;16.36;47.97;97898.25;5072158;28;20486;-69
2022/05/01 08:36:49;;;;;;;20.77;17.10;;;;;;;16.51;48.21;97888.59;5072218;28;20436;-69
2022/05/01 08:39:14;;;;;;;22.30;16.10;;;;;;;16.67;48.40;97890.31;5072173;28;20177;-70
2022/05/01 08:41:40;;;;;;;19.07;14.93;;;;;;;16.73;48.13;97891.44;5071710;28;20264;-69
2022/05/01 08:44:13;;;;;;;17.73;14.80;;;;;;;16.85;47.72;97889.22;5072132;28;20196;-69
2022/05/01 08:46:49;;;;;;;18.80;13.60;;;;;;;16.93;46.42;97891.81;5074764;28;20178;-69
2022/05/01 08:49:17;;;;;;;20.57;15.13;;;;;;;16.98;46.97;97894.78;5071894;28;20448;-69
2022/05/01 08:51:43;;;;;;;23.17;14.80;;;;;;;16.87;45.58;97887.22;5072140;28;20982;-68
2022/05/01 08:54:10;;;;;;;20.87;14.70;;;;;;;16.79;46.05;97895.19;5071592;28;20811;-68
2022/05/01 08:56:37;;;;;;;20.70;14.90;;;;;;;16.84;46.13;97895.50;5079960;28;20429;-68
2022/05/01 08:59:09;;;;;;;17.53;13.57;;;;;;;16.92;45.40;97892.81;5070130;28;20428;-68
2022/05/01 09:01:36;;;;;;;16.53;13.03;;;;;;;17.03;45.44;97892.41;5062180;28;20461;-68
2022/05/01 09:04:02;;;;;;;17.87;14.77;;;;;;;17.12;45.56;97889.72;5062865;28;20425;-69
2022/05/01 09:06:28;;;;;;;18.10;13.73;;;;;;;17.20;45.91;97892.31;5058176;28;20422;-70
2022/05/01 09:08:53;;;;;;;21.40;14.00;;;;;;;17.26;46.09;97886.31;5074704;28;20413;-69
2022/05/01 09:14:04;;;;;;;17.70;14.10;;;;;;;17.48;45.29;97881.94;5063685;28;20496;-69
2022/05/01 09:16:29;;;;;;;16.70;14.40;;;;;;;17.59;45.15;97888.66;5075453;28;20432;-69
2022/05/01 09:18:55;;;;;;;17.57;13.70;;;;;;;17.65;44.96;97879.16;5083283;28;20795;-67
2022/05/01 09:21:20;;;;;;;19.00;14.33;;;;;;;17.63;44.29;97889.09;5081404;28;20284;-69
2022/05/01 09:23:48;;;;;;;15.67;13.33;;;;;;;17.65;44.64;97885.25;5080042;28;20182;-69
2022/05/01 09:26:18;;;;;;;19.37;13.57;;;;;;;17.64;44.85;97883.59;5079194;28;20192;-69
2022/05/01 09:28:54;;;;;;;17.97;12.33;;;;;;;17.62;44.86;97882.16;5070869;28;20436;-69
2022/05/01 09:31:44;;;;;;;18.00;14.23;;;;;;;17.46;44.18;97886.59;5070711;28;20436;-69
2022/05/01 09:34:28;;;;;;;16.10;13.67;;;;;;;17.46;44.65;97888.44;5069413;28;20404;-68
2022/05/01 09:36:54;;;;;;;15.37;13.23;;;;;;;17.30;44.47;97886.75;5064159;28;20424;-69
2022/05/01 09:39:22;;;;;;;17.10;12.70;;;;;;;17.25;44.21;97879.34;5085449;28;20426;-69
2022/05/01 09:41:51;;;;;;;19.03;12.93;;;;;;;17.16;44.05;97891.00;5084892;28;20476;-69
2022/05/01 09:44:19;;;;;;;17.83;14.17;;;;;;;17.12;44.39;97887.88;5070689;28;20413;-69
2022/05/01 09:46:45;;;;;;;17.00;13.90;;;;;;;17.10;44.42;97892.53;5068705;28;20474;-69
2022/05/01 09:49:18;;;;;;;16.13;14.30;;;;;;;17.11;44.72;97894.19;5078408;28;20459;-69
2022/05/01 09:51:54;;;;;;;16.67;14.20;;;;;;;17.23;44.97;97897.25;5074207;28;20448;-69
2022/05/01 09:54:21;;;;;;;17.03;13.50;;;;;;;17.31;44.26;97897.16;5076708;28;20416;-68
2022/05/01 09:56:57;;;;;;;19.43;14.80;;;;;;;17.50;43.33;97898.50;5086801;28;20508;-69
2022/05/01 09:59:23;;;;;;;15.60;13.50;;;;;;;17.73;43.94;97894.16;5071122;28;20416;-69
2022/05/01 10:02:01;;;;;;;18.10;14.37;;;;;;;17.91;42.58;97885.84;5070625;28;20436;-70
2022/05/01 10:04:32;;;;;;;17.07;14.17;;;;;;;18.31;42.47;97888.22;5069142;28;20432;-69
2022/05/01 10:06:58;;;;;;;16.13;13.70;;;;;;;18.98;42.72;97889.78;5076888;28;20430;-70
2022/05/01 10:09:25;;;;;;;19.27;12.63;;;;;;;19.71;42.20;97878.13;5075898;28;20500;-68
2022/05/01 10:11:55;;;;;;;20.00;15.50;;;;;;;20.24;40.21;97876.81;5069777;28;20519;-68
2022/05/01 10:14:22;;;;;;;14.63;12.47;;;;;;;20.60;39.24;97869.56;5070386;28;20673;-68
2022/05/01 10:16:47;;;;;;;16.17;12.80;;;;;;;20.62;38.04;97868.34;5070599;28;20419;-68
2022/05/01 10:19:19;;;;;;;16.40;13.90;;;;;;;20.52;36.81;97868.72;5070662;28;20420;-69
2022/05/01 10:21:47;;;;;;;16.03;13.10;;;;;;;20.50;37.13;97868.09;5067981;28;20244;-67
2022/05/01 10:24:13;;;;;;;17.27;13.17;;;;;;;20.21;37.21;97866.53;5070588;28;20424;-70
2022/05/01 10:26:45;;;;;;;20.10;14.57;;;;;;;19.94;37.33;97866.41;5070018;28;20491;-70
2022/05/01 10:32:49;;;;;;;14.23;12.47;;;;;;;19.85;37.38;97856.94;5066373;28;20950;-70
2022/05/01 10:35:32;;;;;;;15.03;12.23;;;;;;;20.06;37.58;97856.84;5071197;28;20944;-70
2022/05/01 10:38:35;;;;;;;15.80;12.63;;;;;;;20.45;36.35;97851.06;5056123;28;20414;-69
2022/05/01 10:41:04;;;;;;;14.67;12.57;;;;;;;20.78;35.70;97845.06;5066368;28;20487;-70
2022/05/01 10:43:33;;;;;;;15.10;12.80;;;;;;;20.73;35.17;97853.59;5061561;28;20441;-70
2022/05/01 10:46:00;;;;;;;12.33;11.03;;;;;;;20.59;35.99;97852.75;5063863;28;20428;-70
2022/05/01 10:48:29;;;;;;;17.20;12.03;;;;;;;20.34;35.85;97847.16;5079161;28;20427;-69
2022/05/01 10:50:54;;;;;;;11.90;10.50;;;;;;;20.23;36.14;97844.03;5082212;28;20463;-69
2022/05/01 10:53:20;;;;;;;14.20;11.77;;;;;;;20.23;36.20;97841.38;5076626;28;20420;-69
2022/05/01 10:55:48;;;;;;;15.17;12.73;;;;;;;19.68;36.39;97840.47;5087447;28;20256;-70
2022/05/01 10:58:27;;;;;;;15.97;12.80;;;;;;;19.54;37.34;97839.53;5073659;28;20209;-70
2022/05/01 11:00:54;;;;;;;17.27;11.80;;;;;;;19.32;36.83;97839.59;5077087;28;20949;-69
2022/05/01 11:03:26;;;;;;;16.93;12.87;;;;;;;19.22;37.11;97842.59;5078164;28;20421;-70
2022/05/01 11:05:55;;;;;;;14.20;11.63;;;;;;;19.30;37.22;97844.28;5074214;28;20914;-70
2022/05/01 11:08:27;;;;;;;15.07;11.23;;;;;;;19.36;37.32;97843.53;5075461;28;20477;-68
2022/05/01 11:10:56;;;;;;;17.90;12.20;;;;;;;19.43;37.29;97848.91;5069872;28;20543;-70
2022/05/01 11:13:28;;;;;;;16.23;12.33;;;;;;;19.20;36.15;97839.31;5069224;28;20520;-69
2022/05/01 11:15:55;;;;;;;13.17;11.80;;;;;;;19.21;36.75;97842.78;5070631;28;20417;-70
2022/05/01 11:18:33;;;;;;;15.30;12.30;;;;;;;19.43;37.50;97835.59;5073520;28;20445;-70
2022/05/01 11:21:24;;;;;;;13.67;10.90;;;;;;;19.59;36.59;97821.19;5073248;28;20424;-69
2022/05/01 11:24:02;;;;;;;17.20;11.70;;;;;;;19.67;36.74;97825.53;5066431;28;20439;-70
2022/05/01 11:26:29;;;;;;;17.70;12.00;;;;;;;19.72;36.03;97821.25;5071814;28;20512;-70
2022/05/01 11:29:13;;;;;;;12.80;11.10;;;;;;;19.85;35.70;97819.69;5067959;28;20412;-69
2022/05/01 11:31:39;;;;;;;12.23;11.03;;;;;;;19.99;36.31;97820.59;5076433;28;20853;-69
2022/05/01 11:34:16;;;;;;;11.53;10.10;;;;;;;20.01;35.40;97824.72;5073627;28;20477;-70
2022/05/01 11:36:57;;;;;;;13.47;11.10;;;;;;;20.06;35.31;97822.28;5065117;28;20193;-69
2022/05/01 11:39:51;;;;;;;14.17;10.70;;;;;;;20.04;34.95;97823.50;5072936;28;20429;-69
2022/05/01 11:42:34;;;;;;;13.73;10.97;;;;;;;20.10;34.96;97823.53;5070400;28;20429;-70
2022/05/01 11:45:00;;;;;;;12.23;9.73;;;;;;;20.11;35.10;97819.00;5089821;28;20828;-70